sensor_id;sensor_type;location;lat;lon;timestamp;P1;durP1;ratioP1;P2;durP2;ratioP2
14892;SDS011;7538;53.626;9.906;2022-11-15T00:00:30;36.33;;;26.47;;
14892;SDS011;7538;53.626;9.906;2022-11-15T00:02:57;44.13;;;27.60;;
14892;SDS011;7538;53.626;9.906;2022-11-15T00:05:24;41.07;;;27.50;;
14892;SDS011;7538;53.626;9.906;2022-11-15T00:07:50;39.87;;;27.37;;
14892;SDS011;7538;53.626;9.906;2022-11-15T00:10:17;38.90;;;26.57;;
14892;SDS011;7538;53.626;9.906;2022-11-15T00:12:44;42.50;;;27.40;;
14892;SDS011;7538;53.626;9.906;2022-11-15T00:15:11;39.87;;;26.93;;
14892;SDS011;7538;53.626;9.906;2022-11-15T00:17:39;37.83;;;26.30;;
14892;SDS011;7538;53.626;9.906;2022-11-15T00:20:06;42.90;;;27.30;;
14892;SDS011;7538;53.626;9.906;2022-11-15T00:22:34;39.03;;;26.10;;
14892;SDS011;7538;53.626;9.906;2022-11-15T00:25:00;40.77;;;26.50;;
14892;SDS011;7538;53.626;9.906;2022-11-15T00:27:28;39.17;;;27.17;;
14892;SDS011;7538;53.626;9.906;2022-11-15T00:29:55;40.67;;;26.43;;
14892;SDS011;7538;53.626;9.906;2022-11-15T00:32:22;36.47;;;25.17;;
14892;SDS011;7538;53.626;9.906;2022-11-15T00:34:50;38.87;;;26.77;;
14892;SDS011;7538;53.626;9.906;2022-11-15T00:37:16;37.37;;;24.87;;
14892;SDS011;7538;53.626;9.906;2022-11-15T00:39:43;39.90;;;26.93;;
14892;SDS011;7538;53.626;9.906;2022-11-15T00:42:10;37.80;;;25.60;;
14892;SDS011;7538;53.626;9.906;2022-11-15T00:44:37;39.40;;;25.23;;
14892;SDS011;7538;53.626;9.906;2022-11-15T00:47:03;36.80;;;26.97;;
14892;SDS011;7538;53.626;9.906;2022-11-15T00:49:30;33.43;;;23.23;;
14892;SDS011;7538;53.626;9.906;2022-11-15T00:51:58;31.23;;;24.63;;
14892;SDS011;7538;53.626;9.906;2022-11-15T00:54:25;36.13;;;24.03;;
14892;SDS011;7538;53.626;9.906;2022-11-15T00:56:52;33.47;;;24.53;;
14892;SDS011;7538;53.626;9.906;2022-11-15T00:59:19;34.37;;;23.37;;
14892;SDS011;7538;53.626;9.906;2022-11-15T01:01:45;35.20;;;24.13;;
14892;SDS011;7538;53.626;9.906;2022-11-15T01:04:12;36.37;;;24.37;;
14892;SDS011;7538;53.626;9.906;2022-11-15T01:06:40;37.83;;;23.50;;
14892;SDS011;7538;53.626;9.906;2022-11-15T01:09:08;32.23;;;23.73;;
14892;SDS011;7538;53.626;9.906;2022-11-15T01:11:35;32.83;;;22.77;;
14892;SDS011;7538;53.626;9.906;2022-11-15T01:14:01;32.57;;;23.13;;
14892;SDS011;7538;53.626;9.906;2022-11-15T01:16:28;37.23;;;24.63;;
14892;SDS011;7538;53.626;9.906;2022-11-15T01:18:55;34.77;;;23.77;;
14892;SDS011;7538;53.626;9.906;2022-11-15T01:21:22;32.50;;;23.43;;
14892;SDS011;7538;53.626;9.906;2022-11-15T01:23:52;32.47;;;24.00;;
14892;SDS011;7538;53.626;9.906;2022-11-15T01:26:20;33.20;;;23.63;;
14892;SDS011;7538;53.626;9.906;2022-11-15T01:28:48;35.17;;;24.03;;
14892;SDS011;7538;53.626;9.906;2022-11-15T01:31:15;36.00;;;24.00;;
14892;SDS011;7538;53.626;9.906;2022-11-15T01:33:45;34.53;;;23.70;;
14892;SDS011;7538;53.626;9.906;2022-11-15T01:36:13;32.93;;;23.03;;
14892;SDS011;7538;53.626;9.906;2022-11-15T01:38:41;35.50;;;24.40;;
14892;SDS011;7538;53.626;9.906;2022-11-15T01:41:13;37.37;;;24.43;;
14892;SDS011;7538;53.626;9.906;2022-11-15T01:43:43;32.93;;;23.13;;
14892;SDS011;7538;53.626;9.906;2022-11-15T01:46:15;33.90;;;24.07;;
14892;SDS011;7538;53.626;9.906;2022-11-15T01:48:49;34.63;;;24.30;;
14892;SDS011;7538;53.626;9.906;2022-11-15T01:51:19;38.97;;;24.67;;
14892;SDS011;7538;53.626;9.906;2022-11-15T01:53:49;35.07;;;24.27;;
14892;SDS011;7538;53.626;9.906;2022-11-15T01:56:20;32.40;;;22.57;;
14892;SDS011;7538;53.626;9.906;2022-11-15T01:58:50;34.13;;;24.73;;
14892;SDS011;7538;53.626;9.906;2022-11-15T02:01:19;33.00;;;23.63;;
14892;SDS011;7538;53.626;9.906;2022-11-15T02:03:46;32.13;;;23.47;;
14892;SDS011;7538;53.626;9.906;2022-11-15T02:06:17;32.33;;;23.27;;
14892;SDS011;7538;53.626;9.906;2022-11-15T02:08:45;31.83;;;23.13;;
14892;SDS011;7538;53.626;9.906;2022-11-15T02:11:12;37.17;;;24.80;;
14892;SDS011;7538;53.626;9.906;2022-11-15T02:13:39;32.50;;;22.50;;
14892;SDS011;7538;53.626;9.906;2022-11-15T02:16:09;32.77;;;23.60;;
14892;SDS011;7538;53.626;9.906;2022-11-15T02:18:46;34.70;;;23.40;;
14892;SDS011;7538;53.626;9.906;2022-11-15T02:21:19;35.30;;;24.50;;
14892;SDS011;7538;53.626;9.906;2022-11-15T02:24:07;33.07;;;23.03;;
14892;SDS011;7538;53.626;9.906;2022-11-15T02:30:19;35.27;;;22.90;;
14892;SDS011;7538;53.626;9.906;2022-11-15T02:32:48;31.00;;;22.37;;
14892;SDS011;7538;53.626;9.906;2022-11-15T02:35:21;32.10;;;22.70;;
14892;SDS011;7538;53.626;9.906;2022-11-15T02:37:55;33.37;;;22.57;;
14892;SDS011;7538;53.626;9.906;2022-11-15T02:40:26;33.77;;;24.00;;
14892;SDS011;7538;53.626;9.906;2022-11-15T02:43:03;33.43;;;22.17;;
14892;SDS011;7538;53.626;9.906;2022-11-15T02:45:53;35.23;;;24.17;;
14892;SDS011;7538;53.626;9.906;2022-11-15T02:48:26;33.73;;;22.23;;
14892;SDS011;7538;53.626;9.906;2022-11-15T02:50:53;33.40;;;22.83;;
14892;SDS011;7538;53.626;9.906;2022-11-15T02:53:23;32.87;;;22.47;;
14892;SDS011;7538;53.626;9.906;2022-11-15T02:55:50;36.03;;;22.83;;
14892;SDS011;7538;53.626;9.906;2022-11-15T02:58:24;31.67;;;22.67;;
14892;SDS011;7538;53.626;9.906;2022-11-15T03:01:07;32.83;;;21.97;;
14892;SDS011;7538;53.626;9.906;2022-11-15T03:03:46;33.43;;;22.47;;
14892;SDS011;7538;53.626;9.906;2022-11-15T03:06:24;34.17;;;22.90;;
14892;SDS011;7538;53.626;9.906;2022-11-15T03:08:59;36.47;;;23.60;;
14892;SDS011;7538;53.626;9.906;2022-11-15T03:11:31;34.47;;;23.70;;
14892;SDS011;7538;53.626;9.906;2022-11-15T03:14:06;34.93;;;23.17;;
14892;SDS011;7538;53.626;9.906;2022-11-15T03:16:45;33.37;;;22.80;;
14892;SDS011;7538;53.626;9.906;2022-11-15T03:19:17;33.87;;;22.63;;
14892;SDS011;7538;53.626;9.906;2022-11-15T03:21:48;35.40;;;23.50;;
14892;SDS011;7538;53.626;9.906;2022-11-15T03:24:16;33.07;;;23.40;;
14892;SDS011;7538;53.626;9.906;2022-11-15T03:26:46;34.53;;;24.27;;
14892;SDS011;7538;53.626;9.906;2022-11-15T03:29:16;30.70;;;22.27;;
14892;SDS011;7538;53.626;9.906;2022-11-15T03:31:47;34.33;;;22.93;;
14892;SDS011;7538;53.626;9.906;2022-11-15T03:34:22;34.50;;;22.77;;
14892;SDS011;7538;53.626;9.906;2022-11-15T03:36:53;35.43;;;22.47;;
14892;SDS011;7538;53.626;9.906;2022-11-15T03:39:20;35.10;;;22.10;;
14892;SDS011;7538;53.626;9.906;2022-11-15T03:41:48;34.53;;;22.30;;
14892;SDS011;7538;53.626;9.906;2022-11-15T03:44:21;33.00;;;22.73;;
14892;SDS011;7538;53.626;9.906;2022-11-15T03:47:00;30.77;;;21.07;;
14892;SDS011;7538;53.626;9.906;2022-11-15T03:49:32;37.47;;;23.53;;
14892;SDS011;7538;53.626;9.906;2022-11-15T03:52:00;32.43;;;21.90;;
14892;SDS011;7538;53.626;9.906;2022-11-15T03:54:28;32.17;;;21.40;;
14892;SDS011;7538;53.626;9.906;2022-11-15T03:56:55;31.87;;;21.30;;
14892;SDS011;7538;53.626;9.906;2022-11-15T03:59:22;30.93;;;21.37;;
14892;SDS011;7538;53.626;9.906;2022-11-15T04:01:49;33.47;;;22.67;;
14892;SDS011;7538;53.626;9.906;2022-11-15T04:04:17;33.80;;;21.63;;
14892;SDS011;7538;53.626;9.906;2022-11-15T04:06:44;33.50;;;22.73;;
14892;SDS011;7538;53.626;9.906;2022-11-15T04:09:11;29.50;;;22.67;;
14892;SDS011;7538;53.626;9.906;2022-11-15T04:11:38;29.63;;;20.60;;
14892;SDS011;7538;53.626;9.906;2022-11-15T04:14:04;34.47;;;22.73;;
14892;SDS011;7538;53.626;9.906;2022-11-15T04:16:31;30.50;;;21.50;;
14892;SDS011;7538;53.626;9.906;2022-11-15T04:18:58;34.37;;;22.67;;
14892;SDS011;7538;53.626;9.906;2022-11-15T04:21:43;35.17;;;22.93;;
14892;SDS011;7538;53.626;9.906;2022-11-15T04:24:28;31.17;;;21.67;;
14892;SDS011;7538;53.626;9.906;2022-11-15T04:26:54;32.30;;;21.70;;
14892;SDS011;7538;53.626;9.906;2022-11-15T04:29:21;30.27;;;21.47;;
14892;SDS011;7538;53.626;9.906;2022-11-15T04:32:00;30.77;;;22.00;;
14892;SDS011;7538;53.626;9.906;2022-11-15T04:34:27;32.20;;;21.73;;
14892;SDS011;7538;53.626;9.906;2022-11-15T04:36:55;29.40;;;20.70;;
14892;SDS011;7538;53.626;9.906;2022-11-15T04:39:41;33.50;;;21.37;;
14892;SDS011;7538;53.626;9.906;2022-11-15T04:42:08;26.30;;;18.90;;
14892;SDS011;7538;53.626;9.906;2022-11-15T04:44:35;30.77;;;20.93;;
14892;SDS011;7538;53.626;9.906;2022-11-15T04:47:03;33.90;;;21.70;;
14892;SDS011;7538;53.626;9.906;2022-11-15T04:49:30;29.93;;;21.53;;
14892;SDS011;7538;53.626;9.906;2022-11-15T04:51:59;29.80;;;21.57;;
14892;SDS011;7538;53.626;9.906;2022-11-15T04:54:25;31.63;;;21.83;;
14892;SDS011;7538;53.626;9.906;2022-11-15T04:56:52;31.10;;;21.67;;
14892;SDS011;7538;53.626;9.906;2022-11-15T04:59:19;30.43;;;21.30;;
14892;SDS011;7538;53.626;9.906;2022-11-15T05:01:46;32.93;;;21.37;;
14892;SDS011;7538;53.626;9.906;2022-11-15T05:04:12;33.27;;;22.27;;
14892;SDS011;7538;53.626;9.906;2022-11-15T05:06:44;31.80;;;21.70;;
14892;SDS011;7538;53.626;9.906;2022-11-15T05:09:13;32.10;;;22.00;;
14892;SDS011;7538;53.626;9.906;2022-11-15T05:11:40;31.37;;;21.10;;
14892;SDS011;7538;53.626;9.906;2022-11-15T05:14:07;31.60;;;22.53;;
14892;SDS011;7538;53.626;9.906;2022-11-15T05:16:34;31.57;;;21.37;;
14892;SDS011;7538;53.626;9.906;2022-11-15T05:19:02;30.77;;;20.63;;
14892;SDS011;7538;53.626;9.906;2022-11-15T05:21:29;31.70;;;21.10;;
14892;SDS011;7538;53.626;9.906;2022-11-15T05:23:55;31.60;;;20.47;;
14892;SDS011;7538;53.626;9.906;2022-11-15T05:26:23;29.40;;;21.57;;
14892;SDS011;7538;53.626;9.906;2022-11-15T05:28:53;25.77;;;18.97;;
14892;SDS011;7538;53.626;9.906;2022-11-15T05:31:21;30.40;;;20.43;;
14892;SDS011;7538;53.626;9.906;2022-11-15T05:33:49;28.47;;;20.03;;
14892;SDS011;7538;53.626;9.906;2022-11-15T05:36:17;29.27;;;20.00;;
14892;SDS011;7538;53.626;9.906;2022-11-15T05:38:48;25.27;;;19.03;;
14892;SDS011;7538;53.626;9.906;2022-11-15T05:41:16;29.20;;;20.67;;
14892;SDS011;7538;53.626;9.906;2022-11-15T05:43:46;28.50;;;19.97;;
14892;SDS011;7538;53.626;9.906;2022-11-15T05:46:15;29.60;;;19.50;;
14892;SDS011;7538;53.626;9.906;2022-11-15T05:48:45;27.77;;;18.73;;
14892;SDS011;7538;53.626;9.906;2022-11-15T05:51:16;26.43;;;19.27;;
14892;SDS011;7538;53.626;9.906;2022-11-15T05:53:45;31.73;;;20.93;;
14892;SDS011;7538;53.626;9.906;2022-11-15T05:56:12;27.17;;;19.90;;
14892;SDS011;7538;53.626;9.906;2022-11-15T05:58:40;26.70;;;19.87;;
14892;SDS011;7538;53.626;9.906;2022-11-15T06:01:09;23.43;;;17.87;;
14892;SDS011;7538;53.626;9.906;2022-11-15T06:03:36;26.67;;;19.37;;
14892;SDS011;7538;53.626;9.906;2022-11-15T06:06:03;26.03;;;18.23;;
14892;SDS011;7538;53.626;9.906;2022-11-15T06:08:30;26.43;;;18.23;;
14892;SDS011;7538;53.626;9.906;2022-11-15T06:11:02;24.67;;;17.73;;
14892;SDS011;7538;53.626;9.906;2022-11-15T06:13:30;26.77;;;18.23;;
14892;SDS011;7538;53.626;9.906;2022-11-15T06:15:57;26.37;;;17.97;;
14892;SDS011;7538;53.626;9.906;2022-11-15T06:18:25;24.40;;;16.97;;
14892;SDS011;7538;53.626;9.906;2022-11-15T06:20:52;25.70;;;17.90;;
14892;SDS011;7538;53.626;9.906;2022-11-15T06:23:19;26.80;;;19.73;;
14892;SDS011;7538;53.626;9.906;2022-11-15T06:25:46;22.43;;;16.33;;
14892;SDS011;7538;53.626;9.906;2022-11-15T06:28:12;25.97;;;18.00;;
14892;SDS011;7538;53.626;9.906;2022-11-15T06:30:39;25.77;;;17.93;;
14892;SDS011;7538;53.626;9.906;2022-11-15T06:33:06;24.53;;;18.43;;
14892;SDS011;7538;53.626;9.906;2022-11-15T06:35:35;27.93;;;18.37;;
14892;SDS011;7538;53.626;9.906;2022-11-15T06:38:03;24.57;;;18.07;;
14892;SDS011;7538;53.626;9.906;2022-11-15T06:40:32;26.30;;;17.57;;
14892;SDS011;7538;53.626;9.906;2022-11-15T06:42:59;22.07;;;17.23;;
14892;SDS011;7538;53.626;9.906;2022-11-15T06:45:26;22.87;;;16.17;;
14892;SDS011;7538;53.626;9.906;2022-11-15T06:47:53;24.77;;;17.27;;
14892;SDS011;7538;53.626;9.906;2022-11-15T06:50:20;24.10;;;17.67;;
14892;SDS011;7538;53.626;9.906;2022-11-15T06:52:48;23.10;;;16.87;;
14892;SDS011;7538;53.626;9.906;2022-11-15T06:55:15;21.90;;;17.43;;
14892;SDS011;7538;53.626;9.906;2022-11-15T06:57:48;23.98;;;17.02;;
14892;SDS011;7538;53.626;9.906;2022-11-15T07:00:16;22.93;;;16.37;;
14892;SDS011;7538;53.626;9.906;2022-11-15T07:02:45;24.33;;;16.93;;
14892;SDS011;7538;53.626;9.906;2022-11-15T07:05:12;21.33;;;16.00;;
14892;SDS011;7538;53.626;9.906;2022-11-15T07:07:39;25.43;;;17.60;;
14892;SDS011;7538;53.626;9.906;2022-11-15T07:10:08;20.02;;;15.20;;
14892;SDS011;7538;53.626;9.906;2022-11-15T07:12:35;25.60;;;17.43;;
14892;SDS011;7538;53.626;9.906;2022-11-15T07:15:02;18.93;;;14.73;;
14892;SDS011;7538;53.626;9.906;2022-11-15T07:17:30;21.27;;;16.00;;
14892;SDS011;7538;53.626;9.906;2022-11-15T07:19:56;22.90;;;16.63;;
14892;SDS011;7538;53.626;9.906;2022-11-15T07:22:23;19.47;;;15.53;;
14892;SDS011;7538;53.626;9.906;2022-11-15T07:24:50;22.70;;;16.13;;
14892;SDS011;7538;53.626;9.906;2022-11-15T07:27:18;23.40;;;16.43;;
14892;SDS011;7538;53.626;9.906;2022-11-15T07:29:45;19.97;;;15.60;;
14892;SDS011;7538;53.626;9.906;2022-11-15T07:32:12;23.00;;;16.10;;
14892;SDS011;7538;53.626;9.906;2022-11-15T07:34:39;22.93;;;16.80;;
14892;SDS011;7538;53.626;9.906;2022-11-15T07:37:06;20.40;;;16.50;;
14892;SDS011;7538;53.626;9.906;2022-11-15T07:39:32;24.20;;;16.53;;
14892;SDS011;7538;53.626;9.906;2022-11-15T07:41:59;20.88;;;16.30;;
14892;SDS011;7538;53.626;9.906;2022-11-15T07:44:45;20.83;;;16.40;;
14892;SDS011;7538;53.626;9.906;2022-11-15T07:47:12;23.47;;;16.47;;
14892;SDS011;7538;53.626;9.906;2022-11-15T07:49:39;22.37;;;16.23;;
14892;SDS011;7538;53.626;9.906;2022-11-15T07:52:06;22.03;;;16.63;;
14892;SDS011;7538;53.626;9.906;2022-11-15T07:54:32;22.10;;;16.30;;
14892;SDS011;7538;53.626;9.906;2022-11-15T07:56:59;23.73;;;17.17;;
14892;SDS011;7538;53.626;9.906;2022-11-15T07:59:26;23.30;;;17.10;;
14892;SDS011;7538;53.626;9.906;2022-11-15T08:01:54;21.15;;;16.10;;
14892;SDS011;7538;53.626;9.906;2022-11-15T08:04:21;22.53;;;16.17;;
14892;SDS011;7538;53.626;9.906;2022-11-15T08:06:48;20.50;;;16.40;;
14892;SDS011;7538;53.626;9.906;2022-11-15T08:09:14;20.80;;;16.90;;
14892;SDS011;7538;53.626;9.906;2022-11-15T08:11:41;19.27;;;15.50;;
14892;SDS011;7538;53.626;9.906;2022-11-15T08:14:08;20.98;;;16.00;;
14892;SDS011;7538;53.626;9.906;2022-11-15T08:16:35;20.37;;;16.00;;
14892;SDS011;7538;53.626;9.906;2022-11-15T08:19:03;25.20;;;17.10;;
14892;SDS011;7538;53.626;9.906;2022-11-15T08:21:30;18.73;;;15.40;;
14892;SDS011;7538;53.626;9.906;2022-11-15T08:23:57;20.30;;;16.23;;
14892;SDS011;7538;53.626;9.906;2022-11-15T08:26:24;19.15;;;15.23;;
14892;SDS011;7538;53.626;9.906;2022-11-15T08:28:54;19.50;;;15.53;;
14892;SDS011;7538;53.626;9.906;2022-11-15T08:31:21;21.07;;;16.37;;
14892;SDS011;7538;53.626;9.906;2022-11-15T08:33:48;22.03;;;16.17;;
14892;SDS011;7538;53.626;9.906;2022-11-15T08:36:16;21.07;;;15.47;;
14892;SDS011;7538;53.626;9.906;2022-11-15T08:38:43;22.83;;;16.30;;
14892;SDS011;7538;53.626;9.906;2022-11-15T08:41:11;20.52;;;15.07;;
14892;SDS011;7538;53.626;9.906;2022-11-15T08:43:42;21.40;;;16.13;;
14892;SDS011;7538;53.626;9.906;2022-11-15T08:46:10;23.53;;;16.17;;
14892;SDS011;7538;53.626;9.906;2022-11-15T08:48:39;19.27;;;15.25;;
14892;SDS011;7538;53.626;9.906;2022-11-15T08:51:05;21.15;;;15.20;;
14892;SDS011;7538;53.626;9.906;2022-11-15T08:53:34;23.92;;;15.95;;
14892;SDS011;7538;53.626;9.906;2022-11-15T08:56:01;22.05;;;15.75;;
14892;SDS011;7538;53.626;9.906;2022-11-15T08:58:29;20.83;;;14.83;;
14892;SDS011;7538;53.626;9.906;2022-11-15T09:00:55;19.90;;;15.10;;
14892;SDS011;7538;53.626;9.906;2022-11-15T09:03:22;22.30;;;16.23;;
14892;SDS011;7538;53.626;9.906;2022-11-15T09:05:53;18.17;;;15.18;;
14892;SDS011;7538;53.626;9.906;2022-11-15T09:08:21;19.33;;;15.43;;
14892;SDS011;7538;53.626;9.906;2022-11-15T09:10:49;20.87;;;16.00;;
14892;SDS011;7538;53.626;9.906;2022-11-15T09:13:16;20.00;;;15.47;;
14892;SDS011;7538;53.626;9.906;2022-11-15T09:15:43;19.95;;;14.98;;
14892;SDS011;7538;53.626;9.906;2022-11-15T09:18:09;17.23;;;14.37;;
14892;SDS011;7538;53.626;9.906;2022-11-15T09:20:36;23.75;;;16.25;;
14892;SDS011;7538;53.626;9.906;2022-11-15T09:23:03;21.47;;;14.50;;
14892;SDS011;7538;53.626;9.906;2022-11-15T09:25:31;19.10;;;14.90;;
14892;SDS011;7538;53.626;9.906;2022-11-15T09:27:59;18.80;;;14.70;;
14892;SDS011;7538;53.626;9.906;2022-11-15T09:30:26;21.73;;;15.32;;
14892;SDS011;7538;53.626;9.906;2022-11-15T09:32:53;25.38;;;14.57;;
14892;SDS011;7538;53.626;9.906;2022-11-15T09:35:20;21.48;;;15.35;;
14892;SDS011;7538;53.626;9.906;2022-11-15T09:37:46;20.58;;;16.02;;
14892;SDS011;7538;53.626;9.906;2022-11-15T09:40:14;18.97;;;14.50;;
14892;SDS011;7538;53.626;9.906;2022-11-15T09:42:50;19.20;;;14.48;;
14892;SDS011;7538;53.626;9.906;2022-11-15T09:45:31;18.13;;;14.17;;
14892;SDS011;7538;53.626;9.906;2022-11-15T09:48:05;21.30;;;14.80;;
14892;SDS011;7538;53.626;9.906;2022-11-15T09:50:49;20.00;;;14.13;;
14892;SDS011;7538;53.626;9.906;2022-11-15T09:53:22;16.60;;;13.00;;
14892;SDS011;7538;53.626;9.906;2022-11-15T09:55:55;16.75;;;14.75;;
14892;SDS011;7538;53.626;9.906;2022-11-15T09:58:29;19.27;;;14.98;;
14892;SDS011;7538;53.626;9.906;2022-11-15T10:01:02;17.42;;;13.93;;
14892;SDS011;7538;53.626;9.906;2022-11-15T10:03:38;15.85;;;12.90;;
14892;SDS011;7538;53.626;9.906;2022-11-15T10:06:10;18.30;;;14.07;;
14892;SDS011;7538;53.626;9.906;2022-11-15T10:08:48;19.45;;;14.00;;
14892;SDS011;7538;53.626;9.906;2022-11-15T10:11:22;21.38;;;14.57;;
14892;SDS011;7538;53.626;9.906;2022-11-15T10:13:52;17.88;;;13.70;;
14892;SDS011;7538;53.626;9.906;2022-11-15T10:16:29;19.92;;;13.60;;
14892;SDS011;7538;53.626;9.906;2022-11-15T10:19:14;18.77;;;14.77;;
14892;SDS011;7538;53.626;9.906;2022-11-15T10:21:50;22.08;;;15.27;;
14892;SDS011;7538;53.626;9.906;2022-11-15T10:24:25;20.50;;;13.45;;
14892;SDS011;7538;53.626;9.906;2022-11-15T10:26:54;19.90;;;13.95;;
14892;SDS011;7538;53.626;9.906;2022-11-15T10:29:23;17.83;;;13.95;;
14892;SDS011;7538;53.626;9.906;2022-11-15T10:31:51;18.40;;;14.50;;
14892;SDS011;7538;53.626;9.906;2022-11-15T10:34:18;19.40;;;14.38;;
14892;SDS011;7538;53.626;9.906;2022-11-15T10:36:53;20.23;;;14.85;;
14892;SDS011;7538;53.626;9.906;2022-11-15T10:39:23;16.38;;;13.80;;
14892;SDS011;7538;53.626;9.906;2022-11-15T10:41:50;20.80;;;15.02;;
14892;SDS011;7538;53.626;9.906;2022-11-15T10:44:23;18.80;;;14.10;;
14892;SDS011;7538;53.626;9.906;2022-11-15T10:47:05;14.63;;;12.95;;
14892;SDS011;7538;53.626;9.906;2022-11-15T10:50:01;17.58;;;13.60;;
14892;SDS011;7538;53.626;9.906;2022-11-15T10:52:30;20.05;;;14.75;;
14892;SDS011;7538;53.626;9.906;2022-11-15T10:55:01;20.30;;;15.10;;
14892;SDS011;7538;53.626;9.906;2022-11-15T10:57:32;18.63;;;14.68;;
14892;SDS011;7538;53.626;9.906;2022-11-15T11:00:06;16.73;;;14.05;;
14892;SDS011;7538;53.626;9.906;2022-11-15T11:02:56;16.45;;;12.70;;
14892;SDS011;7538;53.626;9.906;2022-11-15T11:05:28;16.17;;;12.85;;
14892;SDS011;7538;53.626;9.906;2022-11-15T11:07:57;15.55;;;12.48;;
14892;SDS011;7538;53.626;9.906;2022-11-15T11:10:26;16.73;;;12.85;;
14892;SDS011;7538;53.626;9.906;2022-11-15T11:12:53;15.48;;;11.90;;
14892;SDS011;7538;53.626;9.906;2022-11-15T11:15:22;15.15;;;11.65;;
14892;SDS011;7538;53.626;9.906;2022-11-15T11:17:57;14.23;;;11.88;;
14892;SDS011;7538;53.626;9.906;2022-11-15T11:20:36;15.93;;;12.73;;
14892;SDS011;7538;53.626;9.906;2022-11-15T11:23:19;15.23;;;12.32;;
14892;SDS011;7538;53.626;9.906;2022-11-15T11:26:00;14.63;;;12.02;;
14892;SDS011;7538;53.626;9.906;2022-11-15T11:28:39;15.43;;;12.38;;
14892;SDS011;7538;53.626;9.906;2022-11-15T11:31:20;15.30;;;11.65;;
14892;SDS011;7538;53.626;9.906;2022-11-15T11:33:56;16.60;;;10.98;;
14892;SDS011;7538;53.626;9.906;2022-11-15T11:36:32;14.95;;;12.23;;
14892;SDS011;7538;53.626;9.906;2022-11-15T11:39:11;15.23;;;12.00;;
14892;SDS011;7538;53.626;9.906;2022-11-15T11:41:53;16.30;;;11.27;;
14892;SDS011;7538;53.626;9.906;2022-11-15T11:44:30;17.13;;;11.55;;
14892;SDS011;7538;53.626;9.906;2022-11-15T11:47:03;13.63;;;11.02;;
14892;SDS011;7538;53.626;9.906;2022-11-15T11:49:37;14.07;;;10.88;;
14892;SDS011;7538;53.626;9.906;2022-11-15T11:52:10;12.68;;;11.30;;
14892;SDS011;7538;53.626;9.906;2022-11-15T11:54:43;15.23;;;11.93;;
14892;SDS011;7538;53.626;9.906;2022-11-15T11:57:21;13.65;;;10.88;;
14892;SDS011;7538;53.626;9.906;2022-11-15T11:59:56;12.77;;;10.98;;
14892;SDS011;7538;53.626;9.906;2022-11-15T12:02:30;15.45;;;11.75;;
14892;SDS011;7538;53.626;9.906;2022-11-15T12:05:03;15.27;;;10.93;;
14892;SDS011;7538;53.626;9.906;2022-11-15T12:07:35;13.73;;;11.15;;
14892;SDS011;7538;53.626;9.906;2022-11-15T12:10:11;13.13;;;10.88;;
14892;SDS011;7538;53.626;9.906;2022-11-15T12:12:44;15.95;;;10.90;;
14892;SDS011;7538;53.626;9.906;2022-11-15T12:15:17;13.57;;;11.05;;
14892;SDS011;7538;53.626;9.906;2022-11-15T12:17:48;13.00;;;10.18;;
14892;SDS011;7538;53.626;9.906;2022-11-15T12:20:16;16.98;;;11.93;;
14892;SDS011;7538;53.626;9.906;2022-11-15T12:22:48;20.75;;;11.05;;
14892;SDS011;7538;53.626;9.906;2022-11-15T12:25:20;12.77;;;10.73;;
14892;SDS011;7538;53.626;9.906;2022-11-15T12:27:51;13.18;;;11.02;;
14892;SDS011;7538;53.626;9.906;2022-11-15T12:30:21;11.65;;;9.95;;
14892;SDS011;7538;53.626;9.906;2022-11-15T12:32:53;11.93;;;10.65;;
14892;SDS011;7538;53.626;9.906;2022-11-15T12:35:26;12.25;;;9.32;;
14892;SDS011;7538;53.626;9.906;2022-11-15T12:37:56;13.57;;;9.68;;
14892;SDS011;7538;53.626;9.906;2022-11-15T12:40:33;12.23;;;9.05;;
14892;SDS011;7538;53.626;9.906;2022-11-15T12:46:10;14.88;;;9.93;;
14892;SDS011;7538;53.626;9.906;2022-11-15T12:57:29;12.35;;;9.88;;
14892;SDS011;7538;53.626;9.906;2022-11-15T13:03:25;12.02;;;9.30;;
14892;SDS011;7538;53.626;9.906;2022-11-15T13:06:03;12.07;;;9.57;;
14892;SDS011;7538;53.626;9.906;2022-11-15T13:08:39;11.13;;;9.30;;
14892;SDS011;7538;53.626;9.906;2022-11-15T13:22:50;13.90;;;9.20;;
14892;SDS011;7538;53.626;9.906;2022-11-15T13:25:30;11.57;;;9.65;;
14892;SDS011;7538;53.626;9.906;2022-11-15T13:28:26;10.35;;;9.23;;
14892;SDS011;7538;53.626;9.906;2022-11-15T13:30:58;10.10;;;8.00;;
14892;SDS011;7538;53.626;9.906;2022-11-15T13:33:28;12.00;;;9.27;;
14892;SDS011;7538;53.626;9.906;2022-11-15T13:35:58;13.45;;;8.85;;
14892;SDS011;7538;53.626;9.906;2022-11-15T13:38:29;12.02;;;9.52;;
14892;SDS011;7538;53.626;9.906;2022-11-15T13:40:57;13.48;;;9.60;;
14892;SDS011;7538;53.626;9.906;2022-11-15T13:43:27;13.23;;;9.40;;
14892;SDS011;7538;53.626;9.906;2022-11-15T13:46:10;11.40;;;8.85;;
14892;SDS011;7538;53.626;9.906;2022-11-15T13:48:39;14.52;;;9.98;;
14892;SDS011;7538;53.626;9.906;2022-11-15T13:51:09;10.82;;;8.73;;
14892;SDS011;7538;53.626;9.906;2022-11-15T13:53:43;10.15;;;9.13;;
14892;SDS011;7538;53.626;9.906;2022-11-15T13:56:13;9.85;;;8.77;;
14892;SDS011;7538;53.626;9.906;2022-11-15T13:58:42;11.23;;;8.93;;
14892;SDS011;7538;53.626;9.906;2022-11-15T14:01:13;9.73;;;8.60;;
14892;SDS011;7538;53.626;9.906;2022-11-15T14:03:46;11.60;;;9.27;;
14892;SDS011;7538;53.626;9.906;2022-11-15T14:06:20;11.15;;;9.70;;
14892;SDS011;7538;53.626;9.906;2022-11-15T14:11:56;11.60;;;8.88;;
14892;SDS011;7538;53.626;9.906;2022-11-15T14:14:24;9.80;;;8.75;;
14892;SDS011;7538;53.626;9.906;2022-11-15T14:16:52;11.27;;;9.25;;
14892;SDS011;7538;53.626;9.906;2022-11-15T14:19:39;9.65;;;8.63;;
14892;SDS011;7538;53.626;9.906;2022-11-15T14:22:13;12.32;;;9.07;;
14892;SDS011;7538;53.626;9.906;2022-11-15T14:24:43;15.48;;;9.35;;
14892;SDS011;7538;53.626;9.906;2022-11-15T14:27:22;11.25;;;9.00;;
14892;SDS011;7538;53.626;9.906;2022-11-15T14:29:50;11.43;;;9.25;;
14892;SDS011;7538;53.626;9.906;2022-11-15T14:32:18;10.93;;;8.82;;
14892;SDS011;7538;53.626;9.906;2022-11-15T14:34:47;12.15;;;9.68;;
14892;SDS011;7538;53.626;9.906;2022-11-15T14:37:19;11.52;;;9.50;;
14892;SDS011;7538;53.626;9.906;2022-11-15T14:39:48;13.40;;;9.38;;
14892;SDS011;7538;53.626;9.906;2022-11-15T14:42:16;12.82;;;9.57;;
14892;SDS011;7538;53.626;9.906;2022-11-15T14:44:44;11.95;;;9.25;;
14892;SDS011;7538;53.626;9.906;2022-11-15T14:47:11;11.40;;;9.63;;
14892;SDS011;7538;53.626;9.906;2022-11-15T14:49:38;11.27;;;9.43;;
14892;SDS011;7538;53.626;9.906;2022-11-15T14:52:07;13.82;;;9.57;;
14892;SDS011;7538;53.626;9.906;2022-11-15T14:54:54;12.68;;;9.20;;
14892;SDS011;7538;53.626;9.906;2022-11-15T14:57:23;12.48;;;9.25;;
14892;SDS011;7538;53.626;9.906;2022-11-15T14:59:51;12.52;;;9.95;;
14892;SDS011;7538;53.626;9.906;2022-11-15T15:02:19;10.18;;;9.02;;
14892;SDS011;7538;53.626;9.906;2022-11-15T15:04:47;10.30;;;9.10;;
14892;SDS011;7538;53.626;9.906;2022-11-15T15:07:14;11.07;;;9.52;;
14892;SDS011;7538;53.626;9.906;2022-11-15T15:09:41;11.55;;;9.95;;
14892;SDS011;7538;53.626;9.906;2022-11-15T15:12:15;12.15;;;9.32;;
14892;SDS011;7538;53.626;9.906;2022-11-15T15:14:43;11.05;;;9.60;;
14892;SDS011;7538;53.626;9.906;2022-11-15T15:17:11;11.13;;;9.07;;
14892;SDS011;7538;53.626;9.906;2022-11-15T15:19:38;10.52;;;9.15;;
14892;SDS011;7538;53.626;9.906;2022-11-15T15:22:05;11.55;;;9.45;;
14892;SDS011;7538;53.626;9.906;2022-11-15T15:24:38;11.23;;;8.88;;
14892;SDS011;7538;53.626;9.906;2022-11-15T15:27:05;10.63;;;9.52;;